Time;durP1;ratioP1;P1;durP2;ratioP2;P2;SDS_P1;SDS_P2;PMS_P1;PMS_P2;Temp;Humidity;BMP_temperature;BMP_pressure;BME280_temperature;BME280_humidity;BME280_pressure;Samples;Min_cycle;Max_cycle;Signal;HPM_P1;HPM_P2
2021/01/07 00:02:13;;;;;;;10.37;5.80;;;1.40;89.10;;;1.74;74.22;97305.88;5082612;28;20375;-45
2021/01/07 00:04:40;;;;;;;10.03;6.30;;;1.40;88.80;;;1.74;74.74;97311.13;5082304;28;20047;-48
2021/01/07 00:07:08;;;;;;;12.07;6.50;;;1.40;89.30;;;1.66;74.59;97313.47;5082303;28;20041;-47
2021/01/07 00:09:35;;;;;;;12.57;7.00;;;1.30;89.20;;;1.70;74.66;97307.06;5082455;28;20044;-46
2021/01/07 00:12:03;;;;;;;10.77;6.10;;;1.30;89.50;;;1.79;74.78;97309.00;5082495;28;20048;-48
2021/01/07 00:14:31;;;;;;;10.53;6.07;;;1.40;89.20;;;1.82;74.39;97316.63;5064796;28;20150;-46
2021/01/07 00:16:58;;;;;;;10.40;6.33;;;1.50;88.80;;;1.85;74.68;97313.78;5080480;28;20273;-46
2021/01/07 00:19:26;;;;;;;9.60;6.27;;;1.50;88.80;;;1.91;74.42;97320.38;5082388;28;20044;-45
2021/01/07 00:21:53;;;;;;;12.30;6.87;;;1.50;88.70;;;1.84;74.03;97314.75;5082578;28;20051;-49
2021/01/07 00:24:21;;;;;;;9.43;5.83;;;1.50;88.10;;;1.87;74.21;97314.50;5081468;28;20060;-47
2021/01/07 00:26:48;;;;;;;11.20;6.40;;;1.50;88.60;;;1.88;74.62;97315.34;5081569;28;20059;-45
2021/01/07 00:29:16;;;;;;;10.87;7.27;;;1.50;88.80;;;1.87;74.13;97311.06;5082201;28;20048;-46
2021/01/07 00:31:44;;;;;;;13.17;6.70;;;1.50;88.80;;;1.87;74.62;97314.50;5081318;28;20229;-46
2021/01/07 00:34:11;;;;;;;10.60;5.67;;;1.50;88.40;;;1.91;74.55;97312.50;5082084;28;20048;-46
2021/01/07 00:36:39;;;;;;;9.47;5.80;;;1.60;88.50;;;1.91;74.05;97318.56;5081638;28;20040;-47
2021/01/07 00:39:06;;;;;;;9.50;5.67;;;1.60;88.30;;;1.93;73.97;97315.84;5081869;28;20050;-46
2021/01/07 00:41:34;;;;;;;11.77;5.73;;;1.60;88.30;;;1.95;73.91;97316.56;5082035;28;20062;-46
2021/01/07 00:44:01;;;;;;;10.23;6.10;;;1.60;88.10;;;1.97;74.32;97307.59;5082263;28;20044;-46
2021/01/07 00:46:29;;;;;;;10.77;6.07;;;1.60;87.90;;;1.95;73.94;97317.38;5081509;28;20348;-47
2021/01/07 00:48:56;;;;;;;10.50;6.10;;;1.60;87.50;;;1.99;73.81;97319.78;5081895;28;20054;-46
2021/01/07 00:51:32;;;;;;;8.70;5.90;;;1.60;88.20;;;2.00;74.26;97318.81;5063619;28;20052;-46
2021/01/07 00:54:02;;;;;;;9.23;5.77;;;1.60;87.60;;;2.03;73.83;97313.34;5063629;28;20051;-48
2021/01/07 00:56:35;;;;;;;8.47;5.73;;;1.70;88.20;;;1.99;73.31;97320.63;5063039;28;20044;-47
2021/01/07 00:59:06;;;;;;;8.13;5.60;;;1.70;87.20;;;2.05;73.78;97308.81;5063200;28;20053;-46
2021/01/07 01:01:45;;;;;;;8.80;5.87;;;1.70;87.90;;;2.05;73.62;97307.03;5081886;28;20259;-49
2021/01/07 01:04:14;;;;;;;8.73;5.90;;;1.70;87.20;;;2.09;74.22;97307.63;5081865;28;20056;-49
2021/01/07 01:06:43;;;;;;;8.57;5.70;;;1.70;87.80;;;2.08;73.99;97309.44;5063581;28;20044;-51
2021/01/07 01:09:13;;;;;;;10.53;6.33;;;1.70;87.50;;;2.11;73.81;97309.22;5081359;28;20185;-46
2021/01/07 01:11:45;;;;;;;9.20;5.70;;;1.70;87.60;;;2.13;74.22;97306.44;5081439;28;20055;-48
2021/01/07 01:14:18;;;;;;;10.70;6.53;;;1.80;87.50;;;2.14;73.67;97311.59;5064191;28;20235;-48
2021/01/07 01:16:50;;;;;;;9.23;5.95;;;1.80;87.20;;;2.16;74.11;97312.31;5062839;28;20054;-46
2021/01/07 01:19:19;;;;;;;11.27;5.90;;;1.80;87.40;;;2.15;74.07;97310.66;5081854;28;20044;-46
2021/01/07 01:21:51;;;;;;;9.17;5.83;;;1.80;87.00;;;2.18;74.04;97312.19;5081628;28;20040;-46
2021/01/07 01:24:20;;;;;;;9.53;6.03;;;1.80;87.40;;;2.14;73.51;97308.97;5081696;28;20048;-47
2021/01/07 01:26:59;;;;;;;12.97;6.60;;;1.70;86.40;;;2.13;73.73;97312.56;5081091;28;20244;-46
2021/01/07 01:29:27;;;;;;;8.33;5.90;;;1.70;87.10;;;2.06;73.96;97321.00;5080999;28;20052;-48
2021/01/07 01:31:55;;;;;;;10.57;5.77;;;1.60;87.00;;;2.06;73.21;97310.50;5081548;28;20248;-47
2021/01/07 01:34:23;;;;;;;10.47;6.40;;;1.60;87.80;;;2.05;73.88;97312.28;5081494;28;20036;-47
2021/01/07 01:36:52;;;;;;;12.50;6.40;;;1.60;87.80;;;2.08;73.46;97308.59;5081105;28;20045;-49
2021/01/07 01:39:19;;;;;;;9.60;6.27;;;1.70;87.90;;;2.08;73.48;97312.06;5081377;28;20040;-46
2021/01/07 01:41:49;;;;;;;10.93;6.37;;;1.70;87.90;;;2.11;73.68;97314.47;5063134;28;20055;-48
2021/01/07 01:44:17;;;;;;;10.67;6.63;;;1.70;87.60;;;2.13;74.06;97320.44;5081648;28;20048;-48
2021/01/07 01:46:45;;;;;;;10.90;6.20;;;1.80;87.50;;;2.16;73.47;97317.56;5080980;28;20058;-50
2021/01/07 01:49:12;;;;;;;10.53;6.13;;;1.80;87.20;;;2.17;73.88;97315.75;5081384;28;20059;-48
2021/01/07 01:51:41;;;;;;;11.60;6.57;;;1.80;87.30;;;2.18;73.61;97320.06;5067083;28;20052;-47
2021/01/07 01:54:10;;;;;;;11.33;7.00;;;1.80;87.00;;;2.17;73.39;97311.34;5067320;28;20058;-49
2021/01/07 01:56:39;;;;;;;11.97;7.30;;;1.80;86.50;;;2.15;73.34;97310.66;5084588;28;20225;-45
2021/01/07 01:59:07;;;;;;;13.17;6.93;;;1.80;86.90;;;2.13;73.82;97311.69;5066616;28;20055;-50
2021/01/07 02:01:35;;;;;;;11.97;7.13;;;1.70;86.50;;;2.10;73.36;97311.94;5084646;28;20044;-46
2021/01/07 02:04:04;;;;;;;11.33;7.03;;;1.60;86.80;;;2.11;73.41;97308.34;5084917;28;20275;-48
2021/01/07 02:06:33;;;;;;;11.00;6.53;;;1.60;86.80;;;2.10;73.72;97304.91;5080889;28;20052;-46
2021/01/07 02:09:05;;;;;;;12.50;7.33;;;1.60;87.20;;;2.11;73.51;97309.22;5067490;28;20362;-45
2021/01/07 02:11:34;;;;;;;12.40;6.70;;;1.70;87.60;;;2.14;73.57;97311.59;5067760;28;20044;-47
2021/01/07 02:14:02;;;;;;;10.73;6.23;;;1.80;87.40;;;2.17;74.00;97308.72;5084636;28;20240;-46
2021/01/07 02:16:29;;;;;;;11.90;6.87;;;1.80;87.20;;;2.17;73.96;97298.22;5084136;28;20066;-47
2021/01/07 02:18:57;;;;;;;10.87;5.43;;;1.80;87.00;;;2.19;73.41;97308.63;5083764;28;20044;-47
2021/01/07 02:21:24;;;;;;;13.77;6.07;;;1.90;87.10;;;2.19;73.42;97318.28;5067086;28;20053;-50
2021/01/07 02:23:55;;;;;;;9.80;6.90;;;1.80;86.10;;;2.16;73.64;97314.94;5084438;28;20052;-47
2021/01/07 02:26:23;;;;;;;12.30;7.30;;;1.80;86.70;;;2.16;73.70;97321.97;5084010;28;20049;-45
2021/01/07 02:28:51;;;;;;;11.17;7.53;;;1.70;87.10;;;2.12;73.34;97328.41;5084526;28;20045;-45
2021/01/07 02:31:18;;;;;;;12.67;6.60;;;1.70;86.50;;;2.09;73.39;97326.00;5083259;28;20236;-45
2021/01/07 02:33:46;;;;;;;11.57;6.67;;;1.60;86.80;;;2.07;73.44;97320.03;5083661;28;20041;-46
2021/01/07 02:36:14;;;;;;;12.03;7.37;;;1.60;87.50;;;2.10;73.44;97317.19;5083874;28;20044;-46
2021/01/07 02:38:41;;;;;;;11.70;6.87;;;1.70;87.50;;;2.14;73.83;97321.25;5084328;28;20050;-50
2021/01/07 02:41:09;;;;;;;11.80;7.50;;;1.70;87.10;;;2.15;73.94;97315.03;5081475;28;20048;-47
2021/01/07 02:43:39;;;;;;;12.60;6.40;;;1.80;86.90;;;2.17;73.32;97315.75;5084106;28;20044;-48
2021/01/07 02:46:07;;;;;;;10.53;6.07;;;1.80;87.00;;;2.18;73.32;97314.81;5083345;28;20386;-46
2021/01/07 02:48:34;;;;;;;9.43;6.20;;;1.80;86.80;;;2.19;73.61;97313.88;5084116;28;20044;-48
2021/01/07 02:51:02;;;;;;;12.77;6.97;;;1.90;86.90;;;2.20;73.44;97315.53;5067306;28;20053;-48
2021/01/07 02:53:29;;;;;;;11.97;6.83;;;1.90;86.90;;;2.20;73.38;97318.16;5064287;28;20356;-48
2021/01/07 02:55:56;;;;;;;10.80;6.90;;;1.80;86.70;;;2.21;73.83;97317.22;5063400;28;20047;-46
2021/01/07 02:58:38;;;;;;;11.13;6.13;;;1.90;86.90;;;2.21;73.29;97308.47;5063823;28;20341;-49
2021/01/07 03:01:05;;;;;;;11.23;6.27;;;1.90;86.90;;;2.22;73.77;97307.53;5063114;28;20233;-51
2021/01/07 03:03:32;;;;;;;9.70;6.27;;;1.90;86.70;;;2.22;73.54;97307.53;5063472;28;20049;-46
2021/01/07 03:06:00;;;;;;;9.90;6.40;;;1.80;86.60;;;2.23;73.39;97306.56;5063236;28;20337;-51
2021/01/07 03:08:27;;;;;;;11.33;6.30;;;1.90;86.70;;;2.21;73.44;97306.72;5063617;28;20272;-46
2021/01/07 03:10:54;;;;;;;11.50;6.47;;;1.80;86.40;;;2.22;73.75;97304.91;5063625;28;20040;-47
2021/01/07 03:13:22;;;;;;;9.30;5.97;;;1.80;86.60;;;2.21;73.57;97308.47;5063834;28;20390;-46
2021/01/07 03:15:49;;;;;;;9.87;6.30;;;1.80;86.40;;;2.21;73.45;97306.72;5063095;28;20049;-46
2021/01/07 03:18:17;;;;;;;10.67;6.03;;;1.90;86.30;;;2.23;73.12;97302.19;5063337;28;20045;-48
2021/01/07 03:20:44;;;;;;;8.93;5.97;;;1.90;86.20;;;2.23;72.98;97298.69;5078871;28;20053;-46
2021/01/07 03:23:12;;;;;;;9.60;5.83;;;1.90;86.20;;;2.23;73.73;97296.06;5078033;28;20056;-46
2021/01/07 03:25:40;;;;;;;8.43;5.07;;;1.90;86.20;;;2.24;73.14;97298.59;5063070;28;20280;-46
2021/01/07 03:28:07;;;;;;;9.73;6.03;;;1.90;86.10;;;2.24;73.20;97305.63;5063275;28;20045;-49
2021/01/07 03:30:35;;;;;;;10.10;6.10;;;1.90;86.00;;;2.21;72.85;97308.47;5063141;28;20410;-49
2021/01/07 03:33:02;;;;;;;10.13;5.83;;;1.80;85.60;;;2.16;72.83;97309.69;5063168;28;20052;-47
2021/01/07 03:35:30;;;;;;;9.63;6.23;;;1.70;86.00;;;2.15;73.06;97294.88;5062956;28;20043;-48
2021/01/07 03:37:57;;;;;;;9.10;5.77;;;1.70;86.50;;;2.16;73.03;97296.53;5063099;28;20233;-48
2021/01/07 03:40:24;;;;;;;9.00;5.97;;;1.70;86.60;;;2.16;72.93;97307.03;5063339;28;20240;-47
2021/01/07 03:42:52;;;;;;;10.03;7.33;;;1.80;86.40;;;2.17;73.28;97303.47;5062922;28;20059;-47
2021/01/07 03:45:19;;;;;;;9.77;5.80;;;1.80;85.70;;;2.10;73.36;97311.94;5062346;28;20368;-46
2021/01/07 03:47:46;;;;;;;12.00;7.10;;;1.60;85.70;;;2.08;72.94;97305.97;5063385;28;20060;-47
2021/01/07 03:50:14;;;;;;;9.57;6.00;;;1.60;86.30;;;2.08;72.76;97298.09;5063050;28;20048;-47
2021/01/07 03:52:41;;;;;;;10.27;5.87;;;1.60;86.50;;;2.08;73.09;97303.34;5062776;28;20245;-51
2021/01/07 03:55:09;;;;;;;10.03;6.40;;;1.60;86.20;;;2.08;73.39;97300.72;5062295;28;20051;-46
2021/01/07 03:57:37;;;;;;;10.83;6.80;;;1.60;86.70;;;2.08;72.89;97293.66;5062794;28;20047;-46
2021/01/07 04:00:05;;;;;;;14.37;7.30;;;1.70;86.60;;;2.08;72.89;97290.22;5062565;28;20044;-47
2021/01/07 04:02:33;;;;;;;15.83;8.27;;;1.60;86.60;;;2.06;73.34;97292.94;5063060;28;20041;-47
2021/01/07 04:05:00;;;;;;;14.80;8.83;;;1.60;86.60;;;2.03;72.83;97293.16;5061918;28;20057;-48
2021/01/07 04:07:28;;;;;;;14.80;8.60;;;1.50;86.60;;;2.03;73.36;97287.91;5062103;28;20055;-48
2021/01/07 04:09:55;;;;;;;13.07;7.80;;;1.60;87.10;;;2.03;73.51;97287.91;5062466;28;20063;-46
2021/01/07 04:12:22;;;;;;;14.10;8.00;;;1.60;87.30;;;2.05;73.02;97293.06;5062177;28;20049;-47
2021/01/07 04:15:04;;;;;;;16.30;9.30;;;1.60;86.60;;;2.03;72.97;97292.34;5061925;28;20375;-46
2021/01/07 04:17:31;;;;;;;14.43;8.87;;;1.60;86.80;;;2.04;72.96;97289.59;5062560;28;20047;-47
2021/01/07 04:19:59;;;;;;;14.53;8.90;;;1.60;87.10;;;2.06;73.66;97285.06;5062356;28;20045;-46
2021/01/07 04:22:26;;;;;;;14.77;8.00;;;1.70;87.00;;;2.09;73.27;97289.25;5062307;28;20051;-48
2021/01/07 04:24:53;;;;;;;13.20;8.20;;;1.70;87.00;;;2.09;73.61;97295.31;5076912;28;20060;-46
2021/01/07 04:27:21;;;;;;;14.47;7.80;;;1.70;86.90;;;2.10;73.45;97289.13;5062028;28;20055;-49
2021/01/07 04:29:48;;;;;;;15.73;7.93;;;1.70;86.80;;;2.12;72.95;97287.22;5062155;28;20344;-46
2021/01/07 04:32:16;;;;;;;14.97;8.00;;;1.70;86.80;;;2.13;73.26;97282.81;5062243;28;20055;-48
2021/01/07 04:34:43;;;;;;;14.63;8.03;;;1.70;86.80;;;2.12;73.51;97287.22;5061712;28;20052;-46
2021/01/07 04:37:10;;;;;;;13.53;7.20;;;1.70;86.80;;;2.13;73.58;97291.53;5061912;28;20260;-47
2021/01/07 04:39:38;;;;;;;13.93;8.30;;;1.70;86.80;;;2.13;73.18;97285.44;5062686;28;20237;-50
2021/01/07 04:42:06;;;;;;;14.10;7.77;;;1.70;86.60;;;2.14;73.49;97282.69;5061846;28;20055;-49
2021/01/07 04:44:35;;;;;;;13.47;7.30;;;1.70;86.80;;;2.15;72.98;97284.38;5077140;28;20052;-47
2021/01/07 04:47:03;;;;;;;12.23;7.47;;;1.80;86.70;;;2.16;73.41;97283.41;5060056;28;20060;-45
2021/01/07 04:49:31;;;;;;;13.77;7.37;;;1.80;86.70;;;2.17;73.03;97295.59;5076672;28;20245;-45
2021/01/07 04:51:59;;;;;;;13.80;7.90;;;1.80;86.80;;;2.16;73.06;97293.09;5062322;28;20053;-46
2021/01/07 04:54:26;;;;;;;12.83;7.73;;;1.80;86.70;;;2.19;73.39;97299.88;5061680;28;20049;-46
2021/01/07 04:56:54;;;;;;;12.10;8.03;;;1.80;86.70;;;2.18;73.44;97291.19;5061428;28;20187;-47
2021/01/07 04:59:21;;;;;;;15.23;8.43;;;1.80;86.70;;;2.20;72.89;97289.25;5061736;28;20045;-46
2021/01/07 05:01:49;;;;;;;13.77;7.80;;;1.80;86.70;;;2.20;73.09;97289.25;5060695;28;20037;-49
2021/01/07 05:04:17;;;;;;;13.23;7.53;;;1.80;86.40;;;2.20;73.46;97288.44;5061696;28;20052;-47
2021/01/07 05:06:47;;;;;;;15.13;8.33;;;1.80;86.60;;;2.19;73.32;97289.38;5059265;28;20053;-49
2021/01/07 05:09:15;;;;;;;13.77;8.00;;;1.80;86.50;;;2.23;73.24;97288.19;5061500;28;20049;-46
2021/01/07 05:11:43;;;;;;;13.87;7.70;;;1.80;86.60;;;2.21;73.48;97285.69;5061696;28;20264;-45
2021/01/07 05:14:11;;;;;;;13.57;7.63;;;1.80;86.50;;;2.22;72.90;97287.34;5061601;28;20045;-46
2021/01/07 05:16:38;;;;;;;13.37;7.37;;;1.80;86.60;;;2.22;73.34;97282.09;5060924;28;20236;-48
2021/01/07 05:19:08;;;;;;;13.33;7.77;;;1.90;86.60;;;2.24;73.25;97282.00;5061516;28;20059;-47
2021/01/07 05:21:35;;;;;;;12.90;7.50;;;1.90;86.30;;;2.23;73.13;97282.94;5076502;28;20044;-46
2021/01/07 05:24:03;;;;;;;10.60;6.13;;;1.90;86.30;;;2.21;73.36;97285.69;5061575;28;20051;-49
2021/01/07 05:26:31;;;;;;;11.97;6.97;;;1.90;86.10;;;2.24;73.01;97282.00;5064663;28;20051;-47
2021/01/07 05:28:59;;;;;;;11.47;6.40;;;1.90;87.10;;;2.25;73.17;97286.28;5065558;28;20032;-47
2021/01/07 05:31:27;;;;;;;12.90;6.93;;;1.90;86.10;;;2.23;73.37;97285.56;5097911;22;20044;-42
2021/01/07 05:33:55;;;;;;;12.73;7.73;;;1.80;86.00;;;2.24;72.94;97289.88;5067554;28;20049;-44
2021/01/07 05:36:28;;;;;;;9.63;6.47;;;1.90;86.10;;;2.23;73.41;97282.94;5084284;28;20044;-45
2021/01/07 05:39:02;;;;;;;11.67;7.57;;;1.90;86.20;;;2.24;73.36;97277.56;5085507;28;20048;-43
2021/01/07 05:41:30;;;;;;;12.53;8.23;;;1.90;86.20;;;2.26;73.07;97277.47;5084578;28;20060;-43
2021/01/07 05:44:12;;;;;;;13.60;9.50;;;1.90;85.80;;;2.28;72.73;97279.00;5084381;28;20045;-42
2021/01/07 05:46:40;;;;;;;9.33;5.93;;;1.90;85.60;;;2.28;72.89;97280.81;5083884;28;20343;-43
2021/01/07 05:49:07;;;;;;;14.57;6.63;;;1.90;85.70;;;2.28;72.86;97281.63;5067120;28;20058;-42
2021/01/07 05:51:41;;;;;;;11.53;6.20;;;1.90;85.60;;;2.27;73.22;97285.22;5085038;28;20268;-42
2021/01/07 05:54:10;;;;;;;12.77;6.82;;;1.90;85.40;;;2.27;72.58;97279.13;5067924;28;20358;-43
2021/01/07 05:56:43;;;;;;;9.83;5.97;;;1.90;85.50;;;2.25;73.02;97273.16;5067738;28;20051;-42
2021/01/07 05:59:11;;;;;;;11.27;5.90;;;1.90;85.50;;;2.25;73.02;97283.66;5067562;28;20055;-42
2021/01/07 06:01:41;;;;;;;9.07;6.00;;;1.80;85.40;;;2.25;72.87;97278.41;5064547;28;20055;-41
2021/01/07 06:04:10;;;;;;;10.63;5.57;;;1.80;85.50;;;2.25;72.90;97278.41;5084922;28;20070;-42
2021/01/07 06:06:39;;;;;;;9.67;6.23;;;1.80;85.30;;;2.25;73.12;97281.03;5066505;28;20049;-43
2021/01/07 06:09:07;;;;;;;9.50;5.87;;;1.90;85.30;;;2.26;73.08;97269.56;5067286;28;20063;-42
2021/01/07 06:11:35;;;;;;;8.20;5.23;;;1.90;85.30;;;2.26;72.75;97273.03;5084838;28;20054;-42
2021/01/07 06:14:03;;;;;;;10.13;6.30;;;1.90;85.10;;;2.27;72.89;97269.47;5067158;28;20236;-42
2021/01/07 06:16:30;;;;;;;10.20;5.83;;;1.90;85.00;;;2.27;72.72;97276.50;5084187;28;20032;-42
2021/01/07 06:19:38;;;;;;;10.07;5.80;;;1.90;85.20;;;2.24;72.34;97276.75;5067040;28;20042;-43
2021/01/07 06:22:14;;;;;;;9.67;6.17;;;1.80;84.80;;;2.24;72.62;97276.75;5002474;28;20066;-43
2021/01/07 06:24:45;;;;;;;11.70;6.80;;;1.80;85.10;;;2.23;72.65;97281.16;5003201;28;20055;-42
2021/01/07 06:27:32;;;;;;;10.33;5.63;;;1.80;84.90;;;2.24;72.32;97285.44;5050615;28;20060;-42
2021/01/07 06:30:02;;;;;;;9.67;5.87;;;1.80;84.50;;;2.22;72.50;97291.78;5084424;28;20269;-42
2021/01/07 06:32:30;;;;;;;9.07;5.80;;;1.70;84.60;;;2.21;72.84;97290.97;5084421;28;20044;-42
2021/01/07 06:35:00;;;;;;;10.17;6.73;;;1.80;85.20;;;2.22;72.59;97289.97;5082033;28;20066;-42
2021/01/07 06:37:35;;;;;;;9.73;5.80;;;1.80;84.80;;;2.23;72.84;97282.94;5083710;28;20048;-44
2021/01/07 06:40:11;;;;;;;9.40;5.93;;;1.80;84.20;;;2.23;72.95;97285.56;5084306;28;20049;-44
2021/01/07 06:42:44;;;;;;;7.67;4.67;;;1.80;84.30;;;2.23;72.74;97290.81;5084204;28;20051;-42
2021/01/07 06:45:13;;;;;;;8.77;4.97;;;1.80;84.80;;;2.22;72.30;97283.91;5083843;28;20051;-42
2021/01/07 06:47:42;;;;;;;7.10;4.90;;;1.80;85.00;;;2.21;72.39;97285.69;5084210;28;20055;-42
2021/01/07 06:50:12;;;;;;;7.77;4.13;;;1.80;84.70;;;2.24;72.22;97287.25;5084017;28;20049;-42
2021/01/07 06:52:45;;;;;;;7.93;4.77;;;1.80;84.70;;;2.22;72.52;97292.63;5084004;28;20056;-42
2021/01/07 06:55:16;;;;;;;7.43;4.20;;;1.80;84.60;;;2.21;72.24;97292.72;5083407;28;20040;-42
2021/01/07 06:57:44;;;;;;;7.10;3.93;;;1.80;84.60;;;2.19;72.52;97289.38;5083967;28;20044;-42
2021/01/07 07:00:24;;;;;;;8.87;5.50;;;1.70;84.70;;;2.18;72.72;97296.44;5083870;28;20056;-43
2021/01/07 07:03:02;;;;;;;7.03;5.07;;;1.80;84.30;;;2.17;72.64;97298.22;5081891;28;20045;-43
2021/01/07 07:05:36;;;;;;;9.97;5.47;;;1.70;84.70;;;2.15;72.22;97287.00;5083435;28;20048;-43
2021/01/07 07:08:13;;;;;;;8.38;4.53;;;1.70;84.80;;;2.16;72.14;97295.72;5083827;28;20052;-42
2021/01/07 07:10:41;;;;;;;9.37;5.13;;;1.70;84.40;;;2.16;72.20;97296.53;5083737;28;20349;-42
2021/01/07 07:13:20;;;;;;;7.77;4.80;;;1.70;84.80;;;2.15;72.00;97297.50;5083700;28;20233;-42
2021/01/07 07:15:49;;;;;;;8.43;5.10;;;1.70;84.60;;;2.15;72.17;97302.75;5083108;28;20068;-44
2021/01/07 07:18:37;;;;;;;6.83;4.30;;;1.70;84.70;;;2.15;71.95;97299.28;5082938;28;20047;-42
2021/01/07 07:21:20;;;;;;;9.43;5.80;;;1.70;84.40;;;2.13;72.35;97312.56;5082435;28;20217;-42
2021/01/07 07:23:48;;;;;;;8.63;4.93;;;1.70;84.80;;;2.14;72.31;97308.97;5083570;28;20044;-43
2021/01/07 07:26:40;;;;;;;9.20;5.37;;;1.70;84.70;;;2.16;72.25;97314.09;5065380;28;20253;-42
2021/01/07 07:29:13;;;;;;;8.60;5.17;;;1.70;84.20;;;2.17;72.36;97318.38;5081879;28;20052;-42
2021/01/07 07:31:49;;;;;;;8.83;4.80;;;1.70;84.60;;;2.14;72.28;97316.84;5079590;28;20045;-42
2021/01/07 07:34:28;;;;;;;8.30;5.00;;;1.70;85.20;;;2.15;72.06;97320.28;5082579;28;20074;-43
2021/01/07 07:36:55;;;;;;;7.93;5.27;;;1.70;85.30;;;2.15;72.15;97322.91;5065870;28;20047;-43
2021/01/07 07:39:27;;;;;;;9.43;5.30;;;1.70;85.40;;;2.15;71.90;97321.16;5064536;28;20062;-42
2021/01/07 07:42:09;;;;;;;9.40;5.33;;;1.70;85.30;;;2.17;72.47;97329.75;5083157;28;20048;-42
2021/01/07 07:44:37;;;;;;;8.30;5.17;;;1.70;85.20;;;2.17;72.10;97323.63;5082782;28;20045;-43
2021/01/07 07:47:04;;;;;;;10.93;5.43;;;1.70;85.40;;;2.15;72.36;97331.66;5082440;28;20247;-42
2021/01/07 07:49:32;;;;;;;11.67;6.53;;;1.70;85.40;;;2.17;71.94;97329.75;5082602;28;20050;-42
2021/01/07 07:51:59;;;;;;;10.80;6.77;;;1.70;85.50;;;2.17;72.36;97334.13;5081953;28;20044;-41
2021/01/07 07:54:26;;;;;;;12.43;6.73;;;1.70;85.70;;;2.13;72.48;97317.81;5082718;28;20058;-42
2021/01/07 07:56:59;;;;;;;11.17;6.33;;;1.70;85.50;;;2.14;72.37;97329.97;5080904;28;20436;-42
2021/01/07 07:59:32;;;;;;;7.57;5.07;;;1.70;85.50;;;2.16;72.14;97327.22;5082129;28;20049;-42
2021/01/07 08:02:00;;;;;;;9.10;5.90;;;1.70;85.30;;;2.19;72.23;97334.03;5082014;28;20044;-43
2021/01/07 08:04:28;;;;;;;11.50;6.07;;;1.70;85.20;;;2.20;72.19;97333.09;5081252;28;20040;-42
2021/01/07 08:06:55;;;;;;;10.77;6.03;;;1.70;84.70;;;2.20;72.00;97336.53;5079782;28;20064;-43
2021/01/07 08:09:23;;;;;;;10.20;6.17;;;1.70;85.40;;;2.19;71.84;97342.78;5064268;28;20274;-43
2021/01/07 08:11:53;;;;;;;8.83;6.40;;;1.70;85.20;;;2.19;72.49;97340.13;5081842;28;20239;-42
2021/01/07 08:14:26;;;;;;;8.60;5.43;;;1.70;85.20;;;2.20;71.96;97338.34;5065063;28;20048;-43
2021/01/07 08:16:59;;;;;;;9.17;5.73;;;1.80;85.10;;;2.19;72.38;97341.91;5082047;28;20043;-45
2021/01/07 08:19:34;;;;;;;9.10;5.83;;;1.80;85.60;;;2.19;71.91;97350.66;5082011;28;20052;-44
2021/01/07 08:22:03;;;;;;;11.17;6.47;;;1.80;84.80;;;2.19;72.40;97350.66;5082348;28;20045;-43
2021/01/07 08:24:31;;;;;;;9.63;6.20;;;1.80;84.80;;;2.15;71.71;97346.56;5063979;28;20216;-41
2021/01/07 08:27:06;;;;;;;10.67;6.53;;;1.70;84.50;;;2.14;72.07;97350.16;5081826;28;20317;-42
2021/01/07 08:29:39;;;;;;;13.27;7.77;;;1.70;85.10;;;2.16;71.86;97346.44;5082242;28;20050;-42
2021/01/07 08:32:10;;;;;;;11.83;6.67;;;1.70;85.10;;;2.18;72.33;97348.97;5064754;28;20070;-43
2021/01/07 08:34:38;;;;;;;16.00;8.03;;;1.80;84.70;;;2.21;71.97;97353.13;5064706;28;20048;-43
2021/01/07 08:37:31;;;;;;;13.87;7.70;;;1.80;84.70;;;2.15;72.03;97359.69;5064252;28;20041;-42
2021/01/07 08:40:06;;;;;;;15.03;7.47;;;1.70;83.60;;;2.06;71.82;97357.78;5082225;28;20051;-42
2021/01/07 08:42:39;;;;;;;15.13;8.00;;;1.60;83.30;;;2.11;71.84;97356.47;5064673;28;20045;-43
2021/01/07 08:45:09;;;;;;;16.37;8.87;;;1.60;84.10;;;2.07;71.73;97352.38;5081647;28;20045;-42
2021/01/07 08:47:36;;;;;;;13.53;7.80;;;1.60;83.50;;;2.12;71.66;97358.13;5062629;28;20037;-45
2021/01/07 08:50:10;;;;;;;16.63;9.37;;;1.70;84.40;;;2.17;72.17;97353.38;5081875;28;20040;-43
2021/01/07 08:52:56;;;;;;;17.13;8.03;;;1.80;84.10;;;2.21;71.88;97353.13;5080744;28;20044;-42
2021/01/07 08:55:49;;;;;;;16.80;8.83;;;1.90;83.50;;;2.20;71.38;97356.72;5081355;28;20217;-42
2021/01/07 08:58:26;;;;;;;15.57;8.27;;;1.80;82.10;;;2.15;72.04;97359.69;5081681;28;20048;-41
2021/01/07 09:00:54;;;;;;;17.30;8.80;;;1.70;83.90;;;2.20;71.99;97361.97;5079816;28;20050;-42
2021/01/07 09:03:21;;;;;;;16.93;8.50;;;1.80;83.90;;;2.23;71.57;97361.72;5064216;28;20054;-42
2021/01/07 09:06:05;;;;;;;19.10;9.27;;;1.80;83.60;;;2.21;70.91;97358.38;5081495;28;20044;-41
2021/01/07 09:08:32;;;;;;;15.80;9.18;;;1.80;82.50;;;2.16;71.53;97353.50;5066523;28;20050;-42
2021/01/07 09:11:06;;;;;;;18.60;9.70;;;1.80;83.10;;;2.19;71.81;97363.78;5081715;28;20048;-41
2021/01/07 09:13:34;;;;;;;16.47;9.27;;;1.80;83.90;;;2.16;71.68;97351.69;5073959;28;20041;-42
2021/01/07 09:16:16;;;;;;;24.90;11.80;;;1.80;83.00;;;2.09;71.57;97357.53;5079680;28;20036;-42
2021/01/07 09:18:47;;;;;;;19.70;10.03;;;1.70;83.40;;;2.17;71.64;97356.00;5079889;28;20053;-42
2021/01/07 09:21:21;;;;;;;25.60;11.37;;;1.80;83.50;;;2.17;71.42;97353.38;5051914;28;20192;-42
2021/01/07 09:23:57;;;;;;;22.63;10.67;;;1.80;83.20;;;2.21;71.74;97354.00;5078267;28;20059;-42
2021/01/07 09:26:30;;;;;;;22.98;11.40;;;1.90;83.50;;;2.26;71.62;97353.63;5078308;28;20244;-42
2021/01/07 09:28:58;;;;;;;29.17;13.03;;;1.90;83.70;;;2.24;71.09;97361.63;5079510;28;20051;-42
2021/01/07 09:31:33;;;;;;;27.47;12.03;;;1.90;82.80;;;2.28;71.54;97351.72;5079531;28;20052;-43
2021/01/07 09:34:00;;;;;;;28.40;13.27;;;2.00;83.20;;;2.26;71.72;97346.59;5063368;28;20056;-42
2021/01/07 09:36:28;;;;;;;29.87;13.83;;;1.90;83.20;;;2.32;72.00;97345.28;5079137;28;20040;-42
2021/01/07 09:38:56;;;;;;;28.60;15.37;;;2.00;83.20;;;2.39;71.64;97350.91;5080265;28;20044;-42
2021/01/07 09:41:23;;;;;;;20.40;11.27;;;2.10;83.30;;;2.44;71.39;97354.00;5080273;28;20051;-41
2021/01/07 09:43:50;;;;;;;18.33;10.93;;;2.10;83.00;;;2.46;71.69;97355.59;5079439;28;20067;-42
2021/01/07 09:46:18;;;;;;;18.27;9.23;;;2.10;82.70;;;2.44;70.99;97352.22;5079983;28;20048;-42
2021/01/07 09:48:45;;;;;;;18.93;11.03;;;2.10;81.80;;;2.49;71.48;97354.50;5080479;28;20048;-42
2021/01/07 09:51:12;;;;;;;18.80;9.47;;;2.10;82.20;;;2.51;71.37;97355.22;5045444;28;20051;-43
2021/01/07 09:53:40;;;;;;;16.10;8.83;;;2.10;82.50;;;2.51;70.97;97356.06;5080137;28;20371;-42
2021/01/07 09:56:08;;;;;;;17.83;8.13;;;2.20;81.10;;;2.48;70.39;97353.69;5079556;28;20344;-42
2021/01/07 09:58:36;;;;;;;16.33;8.10;;;2.10;80.90;;;2.55;71.36;97356.66;5079817;28;20332;-42
2021/01/07 10:01:04;;;;;;;15.53;8.73;;;2.20;82.80;;;2.58;71.65;97353.81;5079197;28;20055;-41
2021/01/07 10:03:31;;;;;;;17.53;10.10;;;2.20;83.70;;;2.62;70.93;97354.38;5061924;28;20386;-42
2021/01/07 10:05:59;;;;;;;14.27;8.33;;;2.20;82.30;;;2.66;71.22;97355.84;5076609;28;20049;-42
2021/01/07 10:08:27;;;;;;;17.43;9.60;;;2.30;81.70;;;2.61;71.01;97353.56;5078409;28;20360;-42
2021/01/07 10:10:54;;;;;;;16.37;8.63;;;2.20;80.20;;;2.58;71.18;97353.81;5080723;28;20048;-51
2021/01/07 10:13:22;;;;;;;17.70;9.50;;;2.20;82.00;;;2.57;71.15;97357.38;5082818;28;20363;-41
2021/01/07 10:15:49;;;;;;;16.47;8.50;;;2.20;81.70;;;2.61;71.01;97350.09;5083271;28;20044;-42
2021/01/07 10:18:17;;;;;;;18.83;9.67;;;2.30;82.20;;;2.53;70.58;97346.25;5082995;28;20542;-41
2021/01/07 10:20:44;;;;;;;18.77;8.73;;;2.20;80.80;;;2.42;69.67;97348.88;5083150;28;20049;-41
2021/01/07 10:23:16;;;;;;;14.87;7.83;;;2.10;79.80;;;2.45;70.31;97350.44;5082783;28;20040;-41
2021/01/07 10:25:46;;;;;;;15.60;7.90;;;2.00;81.10;;;2.48;70.26;97343.16;5060436;28;20054;-42
2021/01/07 10:28:14;;;;;;;17.37;8.80;;;2.10;80.40;;;2.49;70.49;97336.94;5048021;28;20374;-42
2021/01/07 10:30:45;;;;;;;17.73;8.00;;;2.20;80.70;;;2.55;70.73;97331.22;5083441;28;20050;-41
2021/01/07 10:33:14;;;;;;;14.60;8.03;;;2.30;80.50;;;2.59;70.41;97330.97;5064650;28;20240;-41
2021/01/07 10:35:42;;;;;;;19.63;9.93;;;2.30;79.20;;;2.67;70.38;97333.84;5082207;28;20045;-46
2021/01/07 10:38:11;;;;;;;15.10;7.63;;;2.40;80.10;;;2.68;70.17;97333.72;5065737;28;20237;-41
2021/01/07 10:40:47;;;;;;;13.37;6.77;;;2.40;78.60;;;2.68;69.70;97336.34;5083258;28;20051;-41